createdAt,value
2017-12-27T00:00:22.059Z,1.77
2017-12-27T00:02:56.959Z,1.80
2017-12-27T00:05:31.407Z,2.00
2017-12-27T00:08:05.285Z,1.63
2017-12-27T00:13:42.884Z,2.20
2017-12-27T00:16:17.258Z,2.40
2017-12-27T00:18:51.270Z,2.20
2017-12-27T00:21:26.227Z,2.00
2017-12-27T00:24:01.608Z,3.90
2017-12-27T00:26:37.219Z,1.90
2017-12-27T00:29:12.474Z,2.70
2017-12-27T00:31:42.385Z,2.30
2017-12-27T00:34:11.766Z,2.17
2017-12-27T00:36:40.378Z,2.30
2017-12-27T00:39:09.228Z,2.17
2017-12-27T00:41:37.899Z,2.10
2017-12-27T00:44:06.291Z,2.40
2017-12-27T00:46:35.159Z,2.30
2017-12-27T00:49:03.973Z,2.53
2017-12-27T00:51:34.007Z,2.17
2017-12-27T00:54:04.529Z,2.13
2017-12-27T00:56:33.323Z,2.43
2017-12-27T00:59:03.667Z,4.47
2017-12-27T01:01:33.697Z,2.80
2017-12-27T01:04:02.515Z,2.80
2017-12-27T01:06:36.763Z,2.27
2017-12-27T01:09:06.293Z,2.97
2017-12-27T01:11:35.304Z,2.50
2017-12-27T01:14:04.902Z,4.53
2017-12-27T01:16:34.840Z,2.30
2017-12-27T01:19:03.537Z,2.17
2017-12-27T01:21:33.007Z,2.17
2017-12-27T01:24:02.810Z,1.87
2017-12-27T01:26:31.542Z,2.27
2017-12-27T01:29:00.366Z,3.53
2017-12-27T01:31:29.302Z,2.57
2017-12-27T01:33:57.661Z,2.27
2017-12-27T01:36:26.714Z,2.53
2017-12-27T01:38:56.468Z,2.87
2017-12-27T01:41:24.828Z,2.70
2017-12-27T01:43:53.484Z,4.87
2017-12-27T01:46:23.032Z,2.73
2017-12-27T01:48:51.845Z,11.37
2017-12-27T01:51:21.001Z,2.83
2017-12-27T01:53:49.890Z,2.10
2017-12-27T01:56:18.510Z,2.40
2017-12-27T01:58:47.244Z,2.10
2017-12-27T02:01:16.518Z,2.73
2017-12-27T02:03:44.862Z,4.20
2017-12-27T02:06:13.804Z,2.73
2017-12-27T02:08:42.453Z,2.90
2017-12-27T02:11:10.898Z,2.50
2017-12-27T02:13:39.788Z,2.70
2017-12-27T02:16:08.631Z,2.57
2017-12-27T02:18:38.002Z,2.80
2017-12-27T02:21:08.079Z,3.00
2017-12-27T02:23:36.745Z,7.23
2017-12-27T02:26:05.575Z,3.00
2017-12-27T02:28:34.278Z,2.63
2017-12-27T02:31:03.125Z,3.57
2017-12-27T02:33:32.027Z,3.10
2017-12-27T02:36:01.052Z,2.63
2017-12-27T02:38:48.169Z,3.10
2017-12-27T02:41:17.231Z,2.97
2017-12-27T02:43:46.860Z,2.60
2017-12-27T02:46:15.553Z,4.57
2017-12-27T02:48:44.293Z,3.53
2017-12-27T02:51:12.663Z,2.80
2017-12-27T02:53:41.921Z,8.60
2017-12-27T02:56:12.003Z,2.57
2017-12-27T02:58:40.578Z,2.63
2017-12-27T03:01:09.335Z,2.60
2017-12-27T03:03:38.169Z,5.43
2017-12-27T03:06:06.540Z,3.00
2017-12-27T03:08:35.138Z,2.53
2017-12-27T03:11:04.305Z,2.90
2017-12-27T03:13:33.306Z,3.43
2017-12-27T03:16:03.197Z,3.00
2017-12-27T03:18:32.408Z,2.80
2017-12-27T03:21:00.887Z,3.40
2017-12-27T03:23:30.800Z,4.03
2017-12-27T03:25:59.787Z,3.03
2017-12-27T03:28:28.985Z,3.63
2017-12-27T03:30:58.367Z,3.87
2017-12-27T03:33:27.963Z,3.13
2017-12-27T03:35:57.680Z,3.20
2017-12-27T03:38:27.692Z,3.10
2017-12-27T03:40:56.181Z,2.70
2017-12-27T03:43:25.754Z,3.03
2017-12-27T03:45:55.710Z,2.90
2017-12-27T03:48:24.679Z,2.83
2017-12-27T03:50:54.644Z,3.33
2017-12-27T03:53:24.716Z,3.30
2017-12-27T03:55:53.599Z,3.10
2017-12-27T03:58:22.956Z,2.40
2017-12-27T04:00:52.638Z,3.27
2017-12-27T04:03:21.522Z,5.33
2017-12-27T04:05:51.456Z,3.33
2017-12-27T04:08:21.531Z,2.60
2017-12-27T04:10:50.243Z,2.70
2017-12-27T04:13:19.840Z,3.27
2017-12-27T04:15:49.806Z,2.53
2017-12-27T04:18:19.024Z,3.17
2017-12-27T04:20:48.570Z,2.90
2017-12-27T04:23:18.380Z,3.00
2017-12-27T04:25:47.468Z,3.13
2017-12-27T04:28:17.010Z,5.00
2017-12-27T04:30:45.844Z,3.37
2017-12-27T04:33:14.227Z,2.40
2017-12-27T04:35:42.782Z,5.33
2017-12-27T04:38:11.639Z,3.03
2017-12-27T04:40:40.060Z,4.30
2017-12-27T04:43:09.121Z,3.87
2017-12-27T04:45:38.418Z,3.97
2017-12-27T04:48:07.448Z,4.20
2017-12-27T04:50:36.273Z,3.50
2017-12-27T04:53:05.918Z,3.23
2017-12-27T04:55:35.264Z,4.20
2017-12-27T04:58:05.209Z,4.23
2017-12-27T05:00:33.698Z,4.40
2017-12-27T05:03:02.681Z,5.77
2017-12-27T05:05:32.411Z,4.50
2017-12-27T05:08:00.854Z,5.77
2017-12-27T05:10:30.457Z,4.87
2017-12-27T05:13:00.810Z,4.40
2017-12-27T05:15:29.661Z,7.13
2017-12-27T05:17:58.931Z,9.33
2017-12-27T05:20:28.391Z,4.83
2017-12-27T05:22:57.612Z,4.40
2017-12-27T05:25:27.378Z,4.43
2017-12-27T05:27:57.108Z,4.70
2017-12-27T05:30:26.506Z,4.07
2017-12-27T05:32:56.611Z,4.40
2017-12-27T05:35:26.170Z,4.20
2017-12-27T05:37:54.895Z,6.63
2017-12-27T05:40:24.971Z,4.47
2017-12-27T05:42:53.377Z,4.43
2017-12-27T05:45:22.622Z,8.20
2017-12-27T05:47:51.791Z,4.07
2017-12-27T05:50:21.024Z,4.27
2017-12-27T05:52:50.986Z,4.00
2017-12-27T05:55:19.561Z,7.00
2017-12-27T05:57:48.410Z,3.70
2017-12-27T06:00:18.061Z,3.27
2017-12-27T06:02:46.655Z,3.30
2017-12-27T06:05:16.267Z,3.67
2017-12-27T06:07:45.482Z,4.37
2017-12-27T06:10:13.977Z,3.30
2017-12-27T06:12:42.928Z,3.07
2017-12-27T06:15:12.784Z,2.90
2017-12-27T06:17:41.638Z,3.10
2017-12-27T06:20:10.220Z,6.00
2017-12-27T06:22:40.180Z,4.10
2017-12-27T06:25:08.965Z,3.57
2017-12-27T06:27:37.917Z,3.37
2017-12-27T06:30:06.903Z,3.10
2017-12-27T06:32:35.577Z,5.73
2017-12-27T06:35:04.858Z,5.97
2017-12-27T06:37:33.593Z,5.03
2017-12-27T06:40:03.383Z,7.83
2017-12-27T06:42:33.175Z,5.70
2017-12-27T06:45:01.909Z,3.57
2017-12-27T06:47:31.734Z,3.73
2017-12-27T06:50:01.570Z,2.57
2017-12-27T06:52:30.746Z,5.97
2017-12-27T06:55:00.693Z,5.13
2017-12-27T06:57:30.104Z,6.87
2017-12-27T06:59:58.717Z,4.23
2017-12-27T07:02:27.968Z,3.10
2017-12-27T07:04:57.229Z,3.40
2017-12-27T07:07:25.569Z,6.37
2017-12-27T07:09:54.178Z,3.40
2017-12-27T07:12:22.849Z,3.83
2017-12-27T07:14:52.354Z,4.87
2017-12-27T07:17:21.786Z,4.33
2017-12-27T07:19:50.427Z,3.90
2017-12-27T07:22:18.783Z,2.67
2017-12-27T07:24:48.719Z,5.53
2017-12-27T07:27:18.100Z,7.03
2017-12-27T07:29:47.241Z,3.50
2017-12-27T07:32:17.144Z,3.30
2017-12-27T07:34:46.336Z,3.60
2017-12-27T07:37:15.975Z,3.77
2017-12-27T07:39:45.951Z,5.40
2017-12-27T07:42:14.805Z,4.30
2017-12-27T07:44:44.610Z,4.77
2017-12-27T07:47:13.328Z,4.83
2017-12-27T07:49:42.772Z,5.40
2017-12-27T07:52:12.403Z,8.13
2017-12-27T07:54:42.056Z,6.23
2017-12-27T07:57:11.341Z,5.30
2017-12-27T07:59:41.486Z,4.70
2017-12-27T08:02:11.056Z,5.10
2017-12-27T08:04:40.570Z,5.40
2017-12-27T08:07:09.754Z,5.30
2017-12-27T08:09:39.584Z,10.57
2017-12-27T08:12:09.237Z,10.23
2017-12-27T08:14:38.641Z,5.80
2017-12-27T08:17:08.612Z,11.00
2017-12-27T08:19:37.762Z,12.67
2017-12-27T08:22:07.641Z,8.90
2017-12-27T08:24:36.916Z,19.00
2017-12-27T08:27:06.189Z,8.33
2017-12-27T08:29:36.825Z,10.40
2017-12-27T08:32:06.542Z,6.27
2017-12-27T08:34:35.239Z,7.50
2017-12-27T08:37:04.192Z,7.63
2017-12-27T08:39:34.990Z,7.43
2017-12-27T08:42:03.739Z,6.77
2017-12-27T08:44:32.515Z,7.90
2017-12-27T08:47:01.476Z,7.40
2017-12-27T08:49:30.473Z,10.07
2017-12-27T08:51:59.171Z,7.47
2017-12-27T08:54:27.684Z,7.97
2017-12-27T08:56:56.040Z,12.80
2017-12-27T08:59:25.282Z,8.97
2017-12-27T09:01:54.047Z,7.60
2017-12-27T09:04:22.395Z,8.17
2017-12-27T09:06:50.846Z,8.83
2017-12-27T09:09:19.269Z,8.10
2017-12-27T09:11:47.734Z,10.57
2017-12-27T09:14:16.082Z,9.20
2017-12-27T09:16:44.503Z,7.03
2017-12-27T09:19:12.839Z,8.27
2017-12-27T09:21:41.275Z,8.90
2017-12-27T09:24:09.745Z,10.20
2017-12-27T09:26:38.111Z,7.33
2017-12-27T09:29:06.452Z,7.83
2017-12-27T09:31:34.816Z,7.73
2017-12-27T09:34:03.567Z,8.57
2017-12-27T09:36:31.949Z,15.77
2017-12-27T09:39:00.425Z,13.30
2017-12-27T09:41:28.955Z,7.70
2017-12-27T09:43:57.709Z,13.77
2017-12-27T09:46:26.187Z,12.73
2017-12-27T09:48:54.520Z,6.97
2017-12-27T09:51:22.856Z,8.33
2017-12-27T09:53:51.314Z,7.73
2017-12-27T09:56:19.707Z,9.40
2017-12-27T09:58:48.244Z,7.47
2017-12-27T10:01:16.620Z,7.40
2017-12-27T10:03:44.977Z,7.27
2017-12-27T10:06:13.834Z,7.70
2017-12-27T10:08:42.217Z,11.23
2017-12-27T10:11:10.589Z,24.97
2017-12-27T10:13:38.978Z,14.40
2017-12-27T10:16:07.443Z,8.53
2017-12-27T10:18:35.801Z,10.50
2017-12-27T10:21:04.151Z,8.30
2017-12-27T10:23:32.524Z,7.20
2017-12-27T10:26:01.301Z,11.33
2017-12-27T10:28:29.835Z,9.07
2017-12-27T10:30:58.212Z,9.50
2017-12-27T10:33:26.599Z,12.00
2017-12-27T10:35:54.992Z,6.97
2017-12-27T10:38:23.351Z,8.00
2017-12-27T10:40:52.646Z,9.57
2017-12-27T10:43:20.988Z,8.60
2017-12-27T10:45:49.825Z,7.60
2017-12-27T10:48:18.217Z,10.47
2017-12-27T10:50:46.564Z,9.87
2017-12-27T10:53:14.935Z,10.33
2017-12-27T10:55:43.344Z,7.90
2017-12-27T10:58:11.695Z,10.93
2017-12-27T11:00:40.175Z,16.60
2017-12-27T11:03:08.536Z,15.33
2017-12-27T11:05:36.953Z,11.60
2017-12-27T11:08:05.323Z,16.87
2017-12-27T11:10:33.671Z,20.90
2017-12-27T11:13:02.100Z,12.63
2017-12-27T11:15:30.564Z,15.80
2017-12-27T11:17:58.924Z,10.97
2017-12-27T11:20:27.274Z,13.63
2017-12-27T11:22:56.123Z,10.77
2017-12-27T11:25:24.489Z,15.60
2017-12-27T11:27:52.856Z,9.97
2017-12-27T11:30:21.247Z,8.30
2017-12-27T11:32:49.608Z,11.63
2017-12-27T11:35:18.009Z,9.00
2017-12-27T11:37:46.368Z,9.50
2017-12-27T11:40:14.723Z,8.57
2017-12-27T11:42:43.551Z,9.00
2017-12-27T11:45:11.926Z,10.50
2017-12-27T11:47:40.287Z,7.90
2017-12-27T11:50:08.695Z,8.13
2017-12-27T11:52:37.074Z,9.50
2017-12-27T11:55:05.427Z,12.40
2017-12-27T11:57:33.775Z,8.17
2017-12-27T12:00:02.630Z,9.33
2017-12-27T12:02:30.979Z,8.80
2017-12-27T12:04:59.376Z,8.13
2017-12-27T12:07:27.813Z,11.53
2017-12-27T12:09:56.155Z,10.37
2017-12-27T12:12:24.500Z,8.83
2017-12-27T12:14:52.884Z,7.40
2017-12-27T12:17:21.272Z,15.40
2017-12-27T12:19:49.624Z,7.70
2017-12-27T12:22:18.030Z,11.63
2017-12-27T12:24:46.485Z,8.93
2017-12-27T12:27:14.849Z,8.53
2017-12-27T12:29:43.208Z,8.23
2017-12-27T12:32:12.034Z,11.10
2017-12-27T12:34:40.376Z,21.60
2017-12-27T12:37:09.297Z,7.33
2017-12-27T12:39:37.640Z,6.90
2017-12-27T12:42:06.380Z,11.53
2017-12-27T12:44:34.751Z,7.87
2017-12-27T12:47:03.147Z,6.63
2017-12-27T12:49:31.488Z,9.00
2017-12-27T12:51:59.907Z,9.60
2017-12-27T12:54:28.283Z,8.30
2017-12-27T12:56:56.629Z,7.93
2017-12-27T12:59:25.044Z,6.60
2017-12-27T13:01:53.388Z,4.90
2017-12-27T13:04:21.796Z,6.10
2017-12-27T13:06:50.160Z,6.50
2017-12-27T13:09:18.521Z,10.13
2017-12-27T13:11:46.867Z,7.13
2017-12-27T13:14:15.228Z,7.43
2017-12-27T13:16:43.572Z,6.60
2017-12-27T13:19:12.069Z,6.77
2017-12-27T13:21:40.443Z,5.47
2017-12-27T13:24:08.803Z,6.63
2017-12-27T13:26:37.150Z,8.60
2017-12-27T13:29:05.957Z,12.80
2017-12-27T13:31:34.318Z,6.20
2017-12-27T13:34:03.056Z,6.57
2017-12-27T13:36:31.412Z,10.60
2017-12-27T13:38:59.772Z,6.73
2017-12-27T13:41:28.617Z,10.03
2017-12-27T13:43:56.978Z,6.80
2017-12-27T13:46:25.327Z,7.10
2017-12-27T13:48:53.682Z,7.37
2017-12-27T13:51:22.448Z,8.43
2017-12-27T13:53:50.812Z,6.90
2017-12-27T13:56:19.194Z,7.80
2017-12-27T13:58:47.560Z,6.57
2017-12-27T14:01:15.956Z,7.13
2017-12-27T14:03:44.426Z,8.93
2017-12-27T14:06:12.791Z,7.73
2017-12-27T14:08:41.133Z,7.47
2017-12-27T14:11:09.969Z,8.00
2017-12-27T14:13:38.328Z,9.10
2017-12-27T14:16:06.702Z,10.03
2017-12-27T14:18:35.120Z,11.47
2017-12-27T14:21:03.596Z,11.50
2017-12-27T14:23:31.963Z,10.30
2017-12-27T14:26:00.335Z,10.93
2017-12-27T14:28:28.731Z,15.90
2017-12-27T14:30:57.104Z,12.40
2017-12-27T14:33:25.493Z,12.63
2017-12-27T14:35:53.954Z,16.27
2017-12-27T14:38:22.341Z,13.70
2017-12-27T14:40:50.692Z,10.87
2017-12-27T14:43:19.095Z,17.30
2017-12-27T14:45:47.483Z,19.50
2017-12-27T14:48:16.548Z,18.60
2017-12-27T14:50:44.924Z,13.20
2017-12-27T14:53:13.267Z,17.97
2017-12-27T14:55:42.009Z,14.00
2017-12-27T14:58:10.404Z,14.63
2017-12-27T15:00:38.758Z,15.47
2017-12-27T15:03:07.145Z,16.73
2017-12-27T15:05:35.533Z,19.50
2017-12-27T15:08:03.989Z,14.73
2017-12-27T15:10:32.332Z,17.30
2017-12-27T15:13:01.188Z,13.20
2017-12-27T15:15:29.548Z,16.33
2017-12-27T15:17:57.948Z,52.03
2017-12-27T15:20:26.414Z,17.43
2017-12-27T15:22:54.882Z,14.60
2017-12-27T15:25:23.276Z,18.00
2017-12-27T15:27:51.648Z,13.17
2017-12-27T15:30:20.146Z,22.87
2017-12-27T15:32:48.525Z,19.70
2017-12-27T15:35:16.994Z,17.50
2017-12-27T15:37:45.346Z,15.43
2017-12-27T15:40:13.712Z,14.60
2017-12-27T15:42:42.104Z,16.53
2017-12-27T15:45:10.439Z,12.50
2017-12-27T15:47:38.818Z,12.20
2017-12-27T15:50:07.188Z,16.57
2017-12-27T15:52:35.560Z,14.40
2017-12-27T15:55:03.931Z,17.20
2017-12-27T15:57:32.408Z,19.10
2017-12-27T16:00:00.768Z,14.80
2017-12-27T16:02:29.121Z,23.97
2017-12-27T16:04:58.701Z,23.43
2017-12-27T16:07:27.048Z,24.37
2017-12-27T16:09:55.397Z,35.10
2017-12-27T16:12:23.767Z,20.93
2017-12-27T16:14:52.176Z,18.03
2017-12-27T16:17:20.529Z,15.90
2017-12-27T16:19:48.926Z,17.80
2017-12-27T16:22:17.320Z,16.73
2017-12-27T16:24:45.673Z,24.37
2017-12-27T16:27:14.035Z,21.73
2017-12-27T16:29:42.409Z,21.23
2017-12-27T16:32:11.153Z,19.43
2017-12-27T16:34:39.616Z,22.73
2017-12-27T16:37:08.078Z,13.60
2017-12-27T16:39:36.431Z,19.20
2017-12-27T16:42:04.814Z,20.50
2017-12-27T16:44:33.172Z,23.97
2017-12-27T16:47:01.520Z,19.93
2017-12-27T16:49:29.891Z,19.43
2017-12-27T16:51:58.252Z,19.57
2017-12-27T16:54:26.603Z,24.40
2017-12-27T16:56:55.032Z,17.10
2017-12-27T16:59:23.385Z,19.60
2017-12-27T17:01:51.797Z,21.50
2017-12-27T17:04:20.169Z,20.30
2017-12-27T17:06:48.516Z,14.90
2017-12-27T17:09:16.868Z,24.23
2017-12-27T17:11:45.632Z,22.57
2017-12-27T17:14:13.980Z,26.07
2017-12-27T17:16:42.364Z,22.73
2017-12-27T17:19:10.749Z,42.27
2017-12-27T17:21:39.112Z,49.07
2017-12-27T17:24:07.464Z,59.10
2017-12-27T17:26:35.834Z,87.23
2017-12-27T17:29:04.575Z,133.67
2017-12-27T17:31:32.947Z,145.90
2017-12-27T17:34:01.437Z,152.87
2017-12-27T17:36:30.038Z,131.83
2017-12-27T17:38:58.395Z,90.83
2017-12-27T17:41:26.776Z,68.20
2017-12-27T17:43:55.154Z,54.87
2017-12-27T17:46:23.521Z,41.43
2017-12-27T17:48:51.926Z,33.43
2017-12-27T17:51:20.272Z,28.80
2017-12-27T17:53:48.660Z,27.50
2017-12-27T17:56:17.020Z,23.03
2017-12-27T17:58:45.365Z,24.00
2017-12-27T18:01:14.111Z,23.63
2017-12-27T18:03:42.483Z,23.27
2017-12-27T18:06:10.824Z,19.10
2017-12-27T18:08:39.178Z,25.80
2017-12-27T18:11:07.967Z,22.60
2017-12-27T18:13:36.820Z,25.73
2017-12-27T18:16:05.200Z,23.90
2017-12-27T18:18:33.572Z,21.37
2017-12-27T18:21:01.917Z,22.23
2017-12-27T18:23:30.252Z,25.97
2017-12-27T18:25:58.746Z,21.93
2017-12-27T18:28:27.489Z,29.73
2017-12-27T18:30:55.828Z,27.53
2017-12-27T18:33:24.643Z,21.27
2017-12-27T18:35:53.056Z,27.73
2017-12-27T18:38:21.540Z,26.17
2017-12-27T18:40:49.920Z,27.40
2017-12-27T18:43:18.269Z,26.63
2017-12-27T18:45:46.615Z,27.93
2017-12-27T18:48:15.956Z,30.20
2017-12-27T18:50:44.315Z,24.93
2017-12-27T18:53:12.711Z,20.60
2017-12-27T18:55:41.086Z,28.67
2017-12-27T18:58:09.458Z,29.70
2017-12-27T19:00:37.812Z,24.60
2017-12-27T19:03:06.567Z,21.37
2017-12-27T19:05:34.920Z,24.47
2017-12-27T19:08:03.272Z,25.10
2017-12-27T19:10:31.643Z,29.13
2017-12-27T19:12:59.983Z,21.37
2017-12-27T19:15:28.329Z,28.83
2017-12-27T19:17:56.709Z,27.43
2017-12-27T19:20:25.053Z,24.90
2017-12-27T19:22:53.400Z,25.97
2017-12-27T19:25:21.771Z,29.20
2017-12-27T19:27:50.126Z,26.83
2017-12-27T19:30:18.505Z,25.27
2017-12-27T19:32:46.895Z,30.53
2017-12-27T19:35:15.262Z,26.83
2017-12-27T19:37:43.656Z,35.53
2017-12-27T19:40:12.115Z,28.70
2017-12-27T19:42:40.457Z,27.27
2017-12-27T19:45:09.262Z,30.30
2017-12-27T19:47:37.670Z,27.37
2017-12-27T19:50:06.021Z,31.47
2017-12-27T19:52:34.372Z,36.33
2017-12-27T19:55:03.214Z,28.50
2017-12-27T19:57:31.565Z,30.50
2017-12-27T19:59:59.972Z,29.43
2017-12-27T20:02:28.363Z,26.63
2017-12-27T20:04:56.715Z,32.43
2017-12-27T20:07:25.620Z,28.90
2017-12-27T20:09:54.172Z,28.37
2017-12-27T20:12:22.584Z,35.70
2017-12-27T20:14:50.964Z,30.80
2017-12-27T20:17:19.332Z,30.97
2017-12-27T20:19:47.794Z,32.53
2017-12-27T20:22:16.144Z,30.07
2017-12-27T20:24:44.591Z,39.13
2017-12-27T20:27:12.944Z,31.87
2017-12-27T20:29:41.293Z,32.10
2017-12-27T20:32:09.669Z,36.23
2017-12-27T20:34:39.493Z,29.30
2017-12-27T20:37:07.843Z,32.77
2017-12-27T20:39:36.600Z,36.93
2017-12-27T20:42:04.990Z,31.40
2017-12-27T20:44:33.344Z,31.73
2017-12-27T20:47:02.054Z,30.47
2017-12-27T20:49:30.467Z,32.07
2017-12-27T20:51:59.209Z,29.73
2017-12-27T20:54:27.572Z,28.50
2017-12-27T20:56:55.979Z,27.57
2017-12-27T20:59:24.332Z,27.70
2017-12-27T21:01:52.747Z,33.63
2017-12-27T21:04:21.178Z,32.37
2017-12-27T21:06:49.907Z,25.70
2017-12-27T21:09:18.669Z,32.00
2017-12-27T21:11:47.323Z,31.10
2017-12-27T21:14:15.728Z,32.07
2017-12-27T21:16:44.328Z,28.33
2017-12-27T21:19:13.570Z,28.50
2017-12-27T21:21:42.526Z,29.70
2017-12-27T21:24:11.411Z,30.67
2017-12-27T21:26:40.838Z,26.40
2017-12-27T21:29:10.096Z,28.20
2017-12-27T21:31:39.203Z,26.10
2017-12-27T21:34:08.777Z,31.87
2017-12-27T21:36:38.251Z,28.10
2017-12-27T21:39:07.129Z,32.33
2017-12-27T21:41:35.980Z,26.80
2017-12-27T21:44:04.967Z,30.60
2017-12-27T21:46:34.995Z,34.50
2017-12-27T21:49:09.333Z,32.83
2017-12-27T21:51:38.902Z,30.10
2017-12-27T21:54:07.741Z,31.30
2017-12-27T21:56:36.951Z,35.17
2017-12-27T21:59:12.069Z,40.20
2017-12-27T22:01:42.677Z,32.57
2017-12-27T22:04:12.472Z,40.40
2017-12-27T22:06:42.168Z,35.63
2017-12-27T22:09:11.002Z,31.27
2017-12-27T22:11:40.015Z,31.60
2017-12-27T22:14:09.241Z,35.20
2017-12-27T22:16:38.932Z,32.57
2017-12-27T22:19:08.676Z,34.23
2017-12-27T22:21:37.425Z,31.33
2017-12-27T22:24:05.825Z,40.30
2017-12-27T22:26:34.735Z,34.63
2017-12-27T22:29:03.351Z,37.60
2017-12-27T22:31:32.158Z,39.23
2017-12-27T22:34:00.565Z,51.70
2017-12-27T22:36:30.687Z,39.43
2017-12-27T22:39:00.259Z,33.83
2017-12-27T22:41:28.646Z,26.00
2017-12-27T22:43:58.327Z,33.80
2017-12-27T22:46:27.260Z,30.40
2017-12-27T22:48:56.836Z,30.30
2017-12-27T22:51:26.998Z,25.70
2017-12-27T22:53:55.736Z,27.17
2017-12-27T22:56:25.510Z,27.20
2017-12-27T22:58:54.347Z,36.73
2017-12-27T23:01:22.706Z,29.87
2017-12-27T23:03:51.974Z,36.20
2017-12-27T23:06:21.223Z,31.43
2017-12-27T23:08:49.614Z,31.07
2017-12-27T23:11:18.180Z,27.10
2017-12-27T23:13:47.589Z,34.87
2017-12-27T23:16:16.435Z,29.90
2017-12-27T23:18:45.862Z,30.57
2017-12-27T23:21:14.383Z,33.27
2017-12-27T23:23:42.953Z,28.70
2017-12-27T23:26:12.612Z,34.27
2017-12-27T23:28:42.015Z,29.00
2017-12-27T23:31:10.653Z,32.93
2017-12-27T23:33:39.874Z,33.47
2017-12-27T23:36:09.152Z,30.57
2017-12-27T23:38:38.985Z,33.13
2017-12-27T23:41:07.729Z,34.00
2017-12-27T23:43:36.381Z,33.93
2017-12-27T23:46:04.743Z,27.57
2017-12-27T23:48:33.845Z,36.67
2017-12-27T23:51:02.659Z,32.50
2017-12-27T23:53:31.602Z,27.50
2017-12-27T23:56:00.455Z,31.10
2017-12-27T23:58:29.028Z,28.17
